KPWA/PWA METAR and TAF weather

Enter ICAO airport designator
Station Type Date Time Source
KPWA METAR 2019/07/18 10:53 UTC NOAA

KPWA 181053Z AUTO 18016KT 10SM CLR 27/21 A2992 RMK AO2 SLP111 T02670211


Station Type Date Time Source
KPWA Decoded METAR 2019/07/18 10:53 UTC NOAA

WILEY POST, OK, United States (KPWA) 35-32N 97-39W 397M
Jul 18, 2019 - 06:53 AM EDT / 2019.07.18 1053 UTC
Wind: from the S (180 degrees) at 18 MPH (16 KT):0
Visibility: 10 mile(s):0
Sky conditions: clear
Temperature: 80.1 F (26.7 C)
Dew Point: 70.0 F (21.1 C)
Relative Humidity: 71%
Pressure (altimeter): 29.92 in. Hg (1013 hPa)
ob: KPWA 181053Z AUTO 18016KT 10SM CLR 27/21 A2992 RMK AO2 SLP111 T02670211
cycle: 11

Station Type Date Time Source
KPWA TAF UTC NOAA

Error!

Example: see airport list